createdAt,value
2018-02-11T00:00:15.296Z,77.16
2018-02-11T00:00:41.405Z,77.25
2018-02-11T00:01:07.510Z,76.78
2018-02-11T00:01:33.610Z,77.06
2018-02-11T00:01:59.714Z,77.35
2018-02-11T00:02:25.835Z,76.5
2018-02-11T00:02:51.931Z,76.59
2018-02-11T00:03:18.029Z,76.21
2018-02-11T00:03:44.133Z,75.93
2018-02-11T00:04:10.257Z,76.21
2018-02-11T00:04:36.370Z,76.4
2018-02-11T00:05:02.466Z,76.21
2018-02-11T00:05:28.567Z,76.21
2018-02-11T00:05:54.671Z,76.12
2018-02-11T00:06:20.765Z,76.03
2018-02-11T00:06:46.870Z,75.84
2018-02-11T00:07:12.966Z,76.03
2018-02-11T00:07:39.069Z,75.55
2018-02-11T00:08:05.198Z,75.84
2018-02-11T00:08:31.266Z,76.21
2018-02-11T00:08:57.366Z,76.31
2018-02-11T00:09:23.469Z,76.03
2018-02-11T00:09:49.564Z,75.84
2018-02-11T00:10:15.667Z,76.4
2018-02-11T00:10:41.763Z,76.68
2018-02-11T00:11:07.859Z,76.59
2018-02-11T00:11:33.956Z,76.59
2018-02-11T00:12:00.061Z,77.25
2018-02-11T00:12:26.177Z,76.5
2018-02-11T00:12:52.276Z,76.31
2018-02-11T00:13:18.385Z,76.5
2018-02-11T00:13:44.478Z,75.74
2018-02-11T00:14:10.582Z,75.64
2018-02-11T00:14:36.692Z,75.84
2018-02-11T00:15:02.798Z,76.03
2018-02-11T00:15:28.896Z,75.74
2018-02-11T00:15:54.984Z,75.64
2018-02-11T00:16:21.083Z,75.93
2018-02-11T00:16:47.188Z,76.12
2018-02-11T00:17:13.292Z,76.03
2018-02-11T00:17:39.390Z,76.4
2018-02-11T00:18:05.492Z,76.59
2018-02-11T00:18:31.589Z,75.93
2018-02-11T00:18:57.689Z,76.03
2018-02-11T00:19:23.788Z,76.21
2018-02-11T00:19:49.889Z,75.64
2018-02-11T00:20:15.983Z,75.36
2018-02-11T00:20:42.113Z,75.74
2018-02-11T00:21:08.205Z,75.84
2018-02-11T00:21:34.312Z,75.84
2018-02-11T00:22:00.411Z,75.55
2018-02-11T00:22:26.503Z,75.64
2018-02-11T00:22:52.605Z,75.55
2018-02-11T00:23:18.712Z,75.55
2018-02-11T00:23:44.821Z,75.26
2018-02-11T00:24:10.930Z,75.26
2018-02-11T00:24:37.054Z,75.07
2018-02-11T00:25:03.151Z,74.88
2018-02-11T00:25:29.252Z,75.17
2018-02-11T00:25:55.372Z,75.07
2018-02-11T00:26:21.478Z,75.36
2018-02-11T00:26:47.575Z,75.07
2018-02-11T00:27:13.670Z,74.98
2018-02-11T00:27:39.769Z,75.64
2018-02-11T00:28:05.873Z,75.17
2018-02-11T00:28:31.968Z,74.98
2018-02-11T00:28:58.085Z,74.6
2018-02-11T00:29:24.191Z,74.6
2018-02-11T00:29:50.291Z,75.17
2018-02-11T00:30:16.386Z,74.88
2018-02-11T00:30:42.489Z,74.98
2018-02-11T00:31:08.591Z,75.45
2018-02-11T00:31:34.691Z,75.64
2018-02-11T00:32:00.789Z,75.74
2018-02-11T00:32:26.902Z,75.74
2018-02-11T00:32:52.998Z,75.84
2018-02-11T00:33:19.105Z,75.17
2018-02-11T00:33:45.199Z,75.45
2018-02-11T00:34:11.304Z,75.64
2018-02-11T00:34:37.401Z,75.26
2018-02-11T00:35:03.521Z,75.55
2018-02-11T00:35:29.614Z,75.36
2018-02-11T00:35:55.715Z,75.84
2018-02-11T00:36:21.812Z,75.64
2018-02-11T00:36:47.912Z,75.26
2018-02-11T00:37:14.041Z,75.45
2018-02-11T00:37:40.153Z,75.64
2018-02-11T00:38:06.246Z,75.55
2018-02-11T00:38:32.347Z,75.55
2018-02-11T00:38:58.450Z,75.64
2018-02-11T00:39:24.550Z,74.88
2018-02-11T00:39:50.650Z,75.36
2018-02-11T00:40:16.772Z,75.17
2018-02-11T00:40:42.869Z,75.36
2018-02-11T00:41:08.973Z,74.98
2018-02-11T00:41:35.078Z,75.55
2018-02-11T00:42:01.170Z,75.45
2018-02-11T00:42:27.274Z,75.55
2018-02-11T00:42:53.368Z,75.45
2018-02-11T00:43:19.470Z,75.84
2018-02-11T00:43:45.567Z,75.84
2018-02-11T00:44:11.668Z,75.55
2018-02-11T00:44:37.763Z,75.64
2018-02-11T00:45:03.860Z,75.64
2018-02-11T00:45:29.964Z,75.45
2018-02-11T00:45:56.057Z,75.74
2018-02-11T00:46:22.156Z,75.74
2018-02-11T00:46:48.257Z,76.03
2018-02-11T00:47:14.361Z,75.64
2018-02-11T00:47:40.466Z,75.74
2018-02-11T00:48:06.561Z,75.45
2018-02-11T00:48:32.674Z,75.64
2018-02-11T00:48:58.779Z,75.74
2018-02-11T00:49:24.875Z,75.45
2018-02-11T00:49:50.979Z,75.55
2018-02-11T00:50:17.073Z,75.55
2018-02-11T00:50:43.178Z,75.64
2018-02-11T00:51:09.278Z,75.64
2018-02-11T00:51:35.380Z,74.69
2018-02-11T00:52:01.480Z,75.55
2018-02-11T00:52:27.582Z,74.88
2018-02-11T00:52:53.680Z,75.17
2018-02-11T00:53:19.778Z,74.98
2018-02-11T00:53:45.883Z,75.45
2018-02-11T00:54:11.997Z,75.45
2018-02-11T00:54:38.091Z,75.26
2018-02-11T00:55:04.194Z,75.36
2018-02-11T00:55:30.296Z,75.64
2018-02-11T00:55:56.407Z,75.64
2018-02-11T00:56:22.513Z,75.55
2018-02-11T00:56:48.602Z,75.55
2018-02-11T00:57:14.700Z,75.74
2018-02-11T00:57:40.805Z,75.74
2018-02-11T00:58:06.903Z,75.93
2018-02-11T00:58:33.055Z,75.64
2018-02-11T00:58:59.159Z,75.74
2018-02-11T00:59:25.255Z,75.55
2018-02-11T00:59:51.361Z,75.64
2018-02-11T01:00:17.458Z,75.74
2018-02-11T01:00:43.558Z,75.36
2018-02-11T01:01:09.653Z,75.45
2018-02-11T01:01:35.752Z,75.36
2018-02-11T01:02:01.848Z,75.64
2018-02-11T01:02:27.954Z,75.55
2018-02-11T01:02:54.054Z,75.45
2018-02-11T01:03:20.147Z,75.55
2018-02-11T01:03:46.251Z,75.55
2018-02-11T01:04:12.349Z,75.45
2018-02-11T01:04:38.448Z,75.36
2018-02-11T01:05:04.551Z,75.45
2018-02-11T01:05:30.646Z,75.45
2018-02-11T01:05:56.749Z,75.84
2018-02-11T01:06:22.851Z,75.45
2018-02-11T01:06:48.953Z,75.36
2018-02-11T01:07:15.048Z,75.07
2018-02-11T01:07:41.170Z,75.07
2018-02-11T01:08:07.269Z,74.98
2018-02-11T01:08:33.364Z,75.07
2018-02-11T01:08:59.468Z,75.55
2018-02-11T01:09:25.569Z,75.17
2018-02-11T01:09:51.672Z,75.07
2018-02-11T01:10:17.771Z,75.36
2018-02-11T01:10:43.869Z,75.45
2018-02-11T01:11:09.965Z,74.79
2018-02-11T01:11:36.070Z,75.45
2018-02-11T01:12:02.169Z,75.45
2018-02-11T01:12:28.264Z,75.36
2018-02-11T01:12:54.367Z,75.93
2018-02-11T01:13:20.461Z,75.64
2018-02-11T01:13:46.610Z,75.55
2018-02-11T01:14:12.715Z,75.64
2018-02-11T01:14:38.810Z,75.74
2018-02-11T01:15:04.931Z,75.55
2018-02-11T01:15:31.031Z,76.03
2018-02-11T01:15:57.126Z,75.64
2018-02-11T01:16:23.231Z,75.55
2018-02-11T01:16:49.328Z,75.36
2018-02-11T01:17:15.424Z,76.12
2018-02-11T01:17:41.542Z,76.12
2018-02-11T01:18:07.637Z,76.21
2018-02-11T01:18:33.736Z,76.4
2018-02-11T01:18:59.838Z,76.31
2018-02-11T01:19:25.935Z,76.59
2018-02-11T01:19:52.041Z,76.59
2018-02-11T01:20:18.138Z,77.06
2018-02-11T01:20:44.236Z,76.87
2018-02-11T01:21:10.338Z,76.87
2018-02-11T01:21:36.438Z,77.45
2018-02-11T01:22:02.543Z,77.45
2018-02-11T01:22:28.637Z,77.45
2018-02-11T01:22:54.746Z,76.87
2018-02-11T01:23:20.836Z,77.35
2018-02-11T01:23:46.942Z,77.54
2018-02-11T01:24:13.036Z,77.64
2018-02-11T01:24:39.139Z,77.97
2018-02-11T01:25:05.272Z,78.49
2018-02-11T01:25:31.367Z,78.2
2018-02-11T01:25:57.468Z,78.49
2018-02-11T01:26:23.574Z,77.83
2018-02-11T01:26:49.676Z,78.11
2018-02-11T01:27:15.771Z,78.39
2018-02-11T01:27:41.876Z,78.2
2018-02-11T01:28:07.976Z,78.39
2018-02-11T01:28:34.070Z,78.49
2018-02-11T01:29:00.168Z,78.3
2018-02-11T01:29:26.268Z,78.58
2018-02-11T01:29:52.366Z,78.77
2018-02-11T01:30:18.471Z,78.2
2018-02-11T01:30:44.570Z,78.49
2018-02-11T01:31:10.675Z,78.87
2018-02-11T01:31:36.769Z,80.72
2018-02-11T01:32:02.872Z,82.24
2018-02-11T01:32:28.973Z,83
2018-02-11T01:32:55.071Z,83.51
2018-02-11T01:33:21.174Z,83.42
2018-02-11T01:33:47.284Z,82.28
2018-02-11T01:34:13.388Z,82.62
2018-02-11T01:34:39.480Z,82.9
2018-02-11T01:35:05.579Z,83.66
2018-02-11T01:35:31.674Z,84.04
2018-02-11T01:35:57.784Z,84.13
2018-02-11T01:36:23.883Z,84.04
2018-02-11T01:36:49.981Z,84.23
2018-02-11T01:37:16.096Z,84.8
2018-02-11T01:37:42.202Z,84.42
2018-02-11T01:38:08.302Z,83.85
2018-02-11T01:38:34.406Z,84.23
2018-02-11T01:39:00.504Z,84.23
2018-02-11T01:39:26.600Z,83.85
2018-02-11T01:39:52.749Z,84.99
2018-02-11T01:40:18.801Z,84.7
2018-02-11T01:40:44.904Z,84.51
2018-02-11T01:41:10.998Z,84.51
2018-02-11T01:41:37.103Z,84.99
2018-02-11T01:42:03.200Z,85.46
2018-02-11T01:42:29.301Z,85.27
2018-02-11T01:42:55.397Z,84.51
2018-02-11T01:43:21.495Z,84.99
2018-02-11T01:43:47.594Z,84.8
2018-02-11T01:44:13.694Z,83.94
2018-02-11T01:44:39.791Z,84.8
2018-02-11T01:45:05.887Z,83.85
2018-02-11T01:45:31.988Z,84.13
2018-02-11T01:45:58.089Z,84.51
2018-02-11T01:46:24.185Z,85.27
2018-02-11T01:46:50.286Z,85.17
2018-02-11T01:47:16.384Z,84.99
2018-02-11T01:47:42.482Z,84.99
2018-02-11T01:48:08.588Z,85.08
2018-02-11T01:48:34.683Z,84.61
2018-02-11T01:49:00.784Z,84.7
2018-02-11T01:49:26.886Z,85.55
2018-02-11T01:49:53.000Z,85.55
2018-02-11T01:50:19.105Z,85.36
2018-02-11T01:50:46.627Z,85.27
2018-02-11T01:51:12.724Z,86.12
2018-02-11T01:51:38.821Z,85.84
2018-02-11T01:52:04.918Z,86.31
2018-02-11T01:52:31.015Z,86.22
2018-02-11T01:52:57.110Z,86.31
2018-02-11T01:53:23.215Z,86.79
2018-02-11T01:53:49.314Z,86.88
2018-02-11T01:54:15.418Z,86.6
2018-02-11T01:54:41.522Z,86.88
2018-02-11T01:55:07.613Z,87.26
2018-02-11T01:55:33.718Z,87.83
2018-02-11T01:55:59.820Z,87.73
2018-02-11T01:56:25.917Z,88.21
2018-02-11T01:56:52.016Z,88.96
2018-02-11T01:57:18.114Z,89.06
2018-02-11T01:57:44.214Z,89.44
2018-02-11T01:58:10.316Z,89.72
2018-02-11T01:58:36.411Z,89.82
2018-02-11T01:59:02.514Z,90.2
2018-02-11T01:59:28.620Z,90.58
2018-02-11T01:59:54.717Z,89.91
2018-02-11T02:00:20.820Z,89.91
2018-02-11T02:00:46.916Z,89.72
2018-02-11T02:01:13.019Z,89.63
2018-02-11T02:01:39.123Z,89.63
2018-02-11T02:02:05.220Z,89.63
2018-02-11T02:02:31.353Z,89.72
2018-02-11T02:02:57.438Z,88.87
2018-02-11T02:03:23.540Z,89.25
2018-02-11T02:03:49.636Z,89.44
2018-02-11T02:04:15.732Z,90.29
2018-02-11T02:04:41.836Z,89.91
2018-02-11T02:05:07.959Z,90.01
2018-02-11T02:05:34.068Z,90.2
2018-02-11T02:06:00.172Z,90.67
2018-02-11T02:06:26.274Z,90.48
2018-02-11T02:06:52.366Z,91.24
2018-02-11T02:07:18.466Z,90.86
2018-02-11T02:07:44.584Z,91.14
2018-02-11T02:08:10.684Z,91.62
2018-02-11T02:08:36.796Z,91.43
2018-02-11T02:09:02.904Z,91.62
2018-02-11T02:09:28.996Z,91.81
2018-02-11T02:09:55.099Z,92
2018-02-11T02:10:21.193Z,91.71
2018-02-11T02:10:47.293Z,91.71
2018-02-11T02:11:13.397Z,91.9
2018-02-11T02:11:39.494Z,92.28
2018-02-11T02:12:05.590Z,92.47
2018-02-11T02:12:31.696Z,92.28
2018-02-11T02:12:57.792Z,92.57
2018-02-11T02:13:23.895Z,92.09
2018-02-11T02:13:50.011Z,92.47
2018-02-11T02:14:16.121Z,93.32
2018-02-11T02:14:42.222Z,93.61
2018-02-11T02:15:08.323Z,93.61
2018-02-11T02:15:34.423Z,93.32
2018-02-11T02:16:00.519Z,93.8
2018-02-11T02:16:26.638Z,93.61
2018-02-11T02:16:52.737Z,93.89
2018-02-11T02:17:18.843Z,93.7
2018-02-11T02:17:44.933Z,93.99
2018-02-11T02:18:11.031Z,93.8
2018-02-11T02:18:37.137Z,93.8
2018-02-11T02:19:03.238Z,93.7
2018-02-11T02:19:29.337Z,93.8
2018-02-11T02:19:55.441Z,94.37
2018-02-11T02:20:21.551Z,94.74
2018-02-11T02:20:47.651Z,95.03
2018-02-11T02:21:13.750Z,95.03
2018-02-11T02:21:39.854Z,95.22
2018-02-11T02:22:05.950Z,95.5
2018-02-11T02:22:32.046Z,95.88
2018-02-11T02:22:58.152Z,95.5
2018-02-11T02:23:24.245Z,95.98
2018-02-11T02:23:50.345Z,95.74
2018-02-11T02:24:16.440Z,96.21
2018-02-11T02:24:42.544Z,96.78
2018-02-11T02:25:08.651Z,96.78
2018-02-11T02:25:34.743Z,97.54
2018-02-11T02:26:00.840Z,98.39
2018-02-11T02:26:26.944Z,97.73
2018-02-11T02:26:53.040Z,98.11
2018-02-11T02:27:19.143Z,98.39
2018-02-11T02:27:45.246Z,98.01
2018-02-11T02:28:11.344Z,99.15
2018-02-11T02:28:37.439Z,98.01
2018-02-11T02:29:03.543Z,98.49
2018-02-11T02:29:29.642Z,98.49
2018-02-11T02:29:55.738Z,98.3
2018-02-11T02:30:21.834Z,98.11
2018-02-11T02:30:47.938Z,98.39
2018-02-11T02:31:14.034Z,98.39
2018-02-11T02:31:40.137Z,98.86
2018-02-11T02:32:06.240Z,98.86
2018-02-11T02:32:32.381Z,99.15
2018-02-11T02:32:58.438Z,98.86
2018-02-11T02:33:24.531Z,98.86
2018-02-11T02:33:50.634Z,98.77
2018-02-11T02:34:16.734Z,99.15
2018-02-11T02:34:42.838Z,98.96
2018-02-11T02:35:08.933Z,98.86
2018-02-11T02:35:35.039Z,99.33
2018-02-11T02:36:01.137Z,99.15
2018-02-11T02:36:27.232Z,98.96
2018-02-11T02:36:53.334Z,99.15
2018-02-11T02:37:19.426Z,99.24
2018-02-11T02:37:45.524Z,99.24
2018-02-11T02:38:11.626Z,99.52
2018-02-11T02:38:37.729Z,99.43
2018-02-11T02:39:03.836Z,99.05
2018-02-11T02:39:29.926Z,99.24
2018-02-11T02:39:56.026Z,99.52
2018-02-11T02:40:22.129Z,99.62
2018-02-11T02:40:48.247Z,99.43
2018-02-11T02:41:14.376Z,99.71
2018-02-11T02:41:40.476Z,99.43
2018-02-11T02:42:06.577Z,99.62
2018-02-11T02:42:32.677Z,99.52
2018-02-11T02:42:58.789Z,99.62
2018-02-11T02:43:24.888Z,99.99
2018-02-11T02:43:50.989Z,99.99
2018-02-11T02:44:17.088Z,99.99
2018-02-11T02:44:43.194Z,99.99
2018-02-11T02:45:09.298Z,99.99
2018-02-11T02:45:35.391Z,99.99
2018-02-11T02:46:01.487Z,99.99
2018-02-11T02:46:27.595Z,99.99
2018-02-11T02:46:53.691Z,99.99
2018-02-11T02:47:19.785Z,99.99
2018-02-11T02:47:45.885Z,99.99
2018-02-11T02:48:11.988Z,99.99
2018-02-11T02:48:38.091Z,99.99
2018-02-11T02:49:04.185Z,99.99
2018-02-11T02:49:30.285Z,99.99
2018-02-11T02:49:56.389Z,99.99
2018-02-11T02:50:22.499Z,99.99
2018-02-11T02:50:48.620Z,99.99
2018-02-11T02:51:14.720Z,99.99
2018-02-11T02:51:40.851Z,99.99
2018-02-11T02:52:06.970Z,99.99
2018-02-11T02:52:33.430Z,99.99
2018-02-11T02:52:59.532Z,99.99
2018-02-11T02:53:25.623Z,99.99
2018-02-11T02:53:51.928Z,99.99
2018-02-11T02:54:18.114Z,99.99
2018-02-11T02:54:44.211Z,99.99
2018-02-11T02:55:10.311Z,99.99
2018-02-11T02:55:36.583Z,99.99
2018-02-11T02:56:02.677Z,99.99
2018-02-11T02:56:29.252Z,99.99
2018-02-11T02:56:55.328Z,99.99
2018-02-11T02:57:21.448Z,99.99
2018-02-11T02:57:47.604Z,99.58
2018-02-11T02:58:13.813Z,99.77
2018-02-11T02:58:39.834Z,99.99
2018-02-11T02:59:05.937Z,99.99
2018-02-11T02:59:32.060Z,99.96
2018-02-11T02:59:58.161Z,99.77
2018-02-11T03:00:24.748Z,98.82
2018-02-11T03:00:50.802Z,99.48
2018-02-11T03:01:16.892Z,99.48
2018-02-11T03:01:42.990Z,99.39
2018-02-11T03:02:09.096Z,99.29
2018-02-11T03:02:35.612Z,98.91
2018-02-11T03:03:01.855Z,99.67
2018-02-11T03:03:27.965Z,99.99
2018-02-11T03:03:54.067Z,99.96
2018-02-11T03:04:20.170Z,99.01
2018-02-11T03:04:46.268Z,98.35
2018-02-11T03:05:12.494Z,98.91
2018-02-11T03:05:38.767Z,98.72
2018-02-11T03:06:05.056Z,98.44
2018-02-11T03:06:31.184Z,99.01
2018-02-11T03:06:57.284Z,99.43
2018-02-11T03:07:23.378Z,99.33
2018-02-11T03:07:49.760Z,98.96
2018-02-11T03:08:15.911Z,99.15
2018-02-11T03:08:42.066Z,99.15
2018-02-11T03:09:08.159Z,99.01
2018-02-11T03:09:34.264Z,99.05
2018-02-11T03:10:00.360Z,99.15
2018-02-11T03:10:26.488Z,99.05
2018-02-11T03:10:52.812Z,99.05
2018-02-11T03:11:18.929Z,99.43
2018-02-11T03:11:45.078Z,99.33
2018-02-11T03:12:11.181Z,99.24
2018-02-11T03:12:37.276Z,99.05
2018-02-11T03:13:03.398Z,98.77
2018-02-11T03:13:29.546Z,99.62
2018-02-11T03:13:56.378Z,99.05
2018-02-11T03:14:22.479Z,98.77
2018-02-11T03:14:48.579Z,99.24
2018-02-11T03:15:14.692Z,98.39
2018-02-11T03:15:41.044Z,98.77
2018-02-11T03:16:07.541Z,98.86
2018-02-11T03:16:33.619Z,99.24
2018-02-11T03:16:59.714Z,98.96
2018-02-11T03:17:25.827Z,99.33
2018-02-11T03:17:51.930Z,99.43
2018-02-11T03:18:18.251Z,99.29
2018-02-11T03:18:44.913Z,99.05
2018-02-11T03:19:11.125Z,98.91
2018-02-11T03:19:37.222Z,98.91
2018-02-11T03:20:03.323Z,98.3
2018-02-11T03:20:29.615Z,98.54
2018-02-11T03:20:56.286Z,99.58
2018-02-11T03:21:22.411Z,98.16
2018-02-11T03:21:48.532Z,98.44
2018-02-11T03:22:14.627Z,98.54
2018-02-11T03:22:40.889Z,98.77
2018-02-11T03:23:07.144Z,99.05
2018-02-11T03:23:33.472Z,99.24
2018-02-11T03:23:59.560Z,99.05
2018-02-11T03:24:25.663Z,99.71
2018-02-11T03:24:51.761Z,99.05
2018-02-11T03:25:17.861Z,99.24
2018-02-11T03:25:43.960Z,99.52
2018-02-11T03:26:10.049Z,99.62
2018-02-11T03:26:36.144Z,99.71
2018-02-11T03:27:02.260Z,99.15
2018-02-11T03:27:28.368Z,99.24
2018-02-11T03:27:54.462Z,99.33
2018-02-11T03:28:20.563Z,99.15
2018-02-11T03:28:46.666Z,99.29
2018-02-11T03:29:12.776Z,99.2
2018-02-11T03:29:38.875Z,98.91
2018-02-11T03:30:04.982Z,98.63
2018-02-11T03:30:31.085Z,98.25
2018-02-11T03:30:57.187Z,98.25
2018-02-11T03:31:23.282Z,98.44
2018-02-11T03:31:49.386Z,98.16
2018-02-11T03:32:15.499Z,98.25
2018-02-11T03:32:41.602Z,98.16
2018-02-11T03:33:07.703Z,99.1
2018-02-11T03:33:33.818Z,98.63
2018-02-11T03:33:59.912Z,99.29
2018-02-11T03:34:26.016Z,99.2
2018-02-11T03:34:52.111Z,99.2
2018-02-11T03:35:18.250Z,99.39
2018-02-11T03:35:44.317Z,99.39
2018-02-11T03:36:10.414Z,99.67
2018-02-11T03:36:36.531Z,99.2
2018-02-11T03:37:02.629Z,99.2
2018-02-11T03:37:28.729Z,99.29
2018-02-11T03:37:54.828Z,99.29
2018-02-11T03:38:20.930Z,99.29
2018-02-11T03:38:47.028Z,99.39
2018-02-11T03:39:13.133Z,99.58
2018-02-11T03:39:39.230Z,99.48
2018-02-11T03:40:05.329Z,99.86
2018-02-11T03:40:31.433Z,99.99
2018-02-11T03:40:57.572Z,99.96
2018-02-11T03:41:23.627Z,99.99
2018-02-11T03:41:49.732Z,99.99
2018-02-11T03:42:15.832Z,99.96
2018-02-11T03:42:41.942Z,99.77
2018-02-11T03:43:08.108Z,99.99
2018-02-11T03:43:34.205Z,99.99
2018-02-11T03:44:00.307Z,99.99
2018-02-11T03:44:26.413Z,99.99
2018-02-11T03:44:52.507Z,99.99
2018-02-11T03:45:18.599Z,99.99
2018-02-11T03:45:44.731Z,99.99
2018-02-11T03:46:10.829Z,99.99
2018-02-11T03:46:36.928Z,99.99
2018-02-11T03:47:03.032Z,99.99
2018-02-11T03:47:29.132Z,99.99
2018-02-11T03:47:55.231Z,99.99
2018-02-11T03:48:21.332Z,99.99
2018-02-11T03:48:47.433Z,99.99
2018-02-11T03:49:13.588Z,99.99
2018-02-11T03:49:39.750Z,99.99
2018-02-11T03:50:06.860Z,99.99
2018-02-11T03:50:32.939Z,99.99
2018-02-11T03:50:59.044Z,99.99
2018-02-11T03:51:25.140Z,99.99
2018-02-11T03:51:51.237Z,99.99
2018-02-11T03:52:17.341Z,99.99
2018-02-11T03:52:43.437Z,99.99
2018-02-11T03:53:09.544Z,99.99
2018-02-11T03:53:35.638Z,99.99
2018-02-11T03:54:01.732Z,99.99
2018-02-11T03:54:27.834Z,99.99
2018-02-11T03:54:54.193Z,99.99
2018-02-11T03:55:20.297Z,99.99
2018-02-11T03:55:46.401Z,99.99
2018-02-11T03:56:12.497Z,99.99
2018-02-11T03:56:38.618Z,99.99
2018-02-11T03:57:04.711Z,99.99
2018-02-11T03:57:30.844Z,99.99
2018-02-11T03:57:57.019Z,99.99
2018-02-11T03:58:23.194Z,99.99
2018-02-11T03:58:49.604Z,99.99
2018-02-11T03:59:15.728Z,99.99
2018-02-11T03:59:42.212Z,99.99
2018-02-11T04:00:08.231Z,99.99
2018-02-11T04:00:34.332Z,99.99
2018-02-11T04:01:00.430Z,99.99
2018-02-11T04:01:26.563Z,99.99
2018-02-11T04:01:52.663Z,99.99
2018-02-11T04:02:18.763Z,99.99
2018-02-11T04:02:45.116Z,99.99
2018-02-11T04:03:11.227Z,99.99
2018-02-11T04:03:37.344Z,99.99
2018-02-11T04:04:03.786Z,99.99
2018-02-11T04:04:29.824Z,99.99
2018-02-11T04:04:55.928Z,99.99
2018-02-11T04:05:22.023Z,99.99
2018-02-11T04:05:48.122Z,99.99
2018-02-11T04:06:14.221Z,99.99
2018-02-11T04:06:40.318Z,99.99
2018-02-11T04:07:06.414Z,99.99
2018-02-11T04:07:32.534Z,99.99
2018-02-11T04:07:58.636Z,99.99
2018-02-11T04:08:24.758Z,99.99
2018-02-11T04:08:50.849Z,99.99
2018-02-11T04:09:16.966Z,99.99
2018-02-11T04:09:43.322Z,99.99
2018-02-11T04:10:09.416Z,99.99
2018-02-11T04:10:35.528Z,99.86
2018-02-11T04:11:01.634Z,99.86
2018-02-11T04:11:27.736Z,99.96
2018-02-11T04:11:53.828Z,99.99
2018-02-11T04:12:20.223Z,99.99
2018-02-11T04:12:46.441Z,99.99
2018-02-11T04:13:12.481Z,99.99
2018-02-11T04:13:38.577Z,99.99
2018-02-11T04:14:04.685Z,99.96
2018-02-11T04:14:30.788Z,99.99
2018-02-11T04:14:56.888Z,99.99
2018-02-11T04:15:22.988Z,99.99
2018-02-11T04:15:49.104Z,99.99
2018-02-11T04:16:15.204Z,99.96
2018-02-11T04:16:41.300Z,99.96
2018-02-11T04:17:07.401Z,99.99
2018-02-11T04:17:33.499Z,99.99
2018-02-11T04:17:59.599Z,99.99
2018-02-11T04:18:25.701Z,99.99
2018-02-11T04:18:51.796Z,99.99
2018-02-11T04:19:17.924Z,99.99
2018-02-11T04:19:44.039Z,99.86
2018-02-11T04:20:10.239Z,99.58
2018-02-11T04:20:36.326Z,99.99
2018-02-11T04:21:02.421Z,99.99
2018-02-11T04:21:28.522Z,99.99
2018-02-11T04:21:54.673Z,99.99
2018-02-11T04:22:20.809Z,99.99
2018-02-11T04:22:46.903Z,99.99
2018-02-11T04:23:13.002Z,99.99
2018-02-11T04:23:39.101Z,99.99
2018-02-11T04:24:05.205Z,99.99
2018-02-11T04:24:31.308Z,99.99
2018-02-11T04:24:57.402Z,99.99
2018-02-11T04:25:23.509Z,99.99
2018-02-11T04:25:49.600Z,99.99
2018-02-11T04:26:15.706Z,99.99
2018-02-11T04:26:41.809Z,99.99
2018-02-11T04:27:07.907Z,99.99
2018-02-11T04:27:34.012Z,99.99
2018-02-11T04:28:00.112Z,99.99
2018-02-11T04:28:26.518Z,99.99
2018-02-11T04:28:53.049Z,99.99
2018-02-11T04:29:19.157Z,99.99
2018-02-11T04:29:45.583Z,99.99
2018-02-11T04:30:11.678Z,99.99
2018-02-11T04:30:37.786Z,99.99
2018-02-11T04:31:03.880Z,99.99
2018-02-11T04:31:29.973Z,99.99
2018-02-11T04:31:56.079Z,99.99
2018-02-11T04:32:22.176Z,99.99
2018-02-11T04:32:48.274Z,99.99
2018-02-11T04:33:14.379Z,99.99
2018-02-11T04:33:40.473Z,99.99
2018-02-11T04:34:06.583Z,99.99
2018-02-11T04:34:32.672Z,99.99
2018-02-11T04:34:58.798Z,99.99
2018-02-11T04:35:24.896Z,99.99
2018-02-11T04:35:51.015Z,99.99
2018-02-11T04:36:17.107Z,99.99
2018-02-11T04:36:43.204Z,99.99
2018-02-11T04:37:09.308Z,99.99
2018-02-11T04:37:35.459Z,99.99
2018-02-11T04:38:01.565Z,99.99
2018-02-11T04:38:27.658Z,99.99
2018-02-11T04:38:53.762Z,99.99
2018-02-11T04:39:19.863Z,99.99
2018-02-11T04:39:45.960Z,99.99
2018-02-11T04:40:12.099Z,99.99
2018-02-11T04:40:38.428Z,99.99
2018-02-11T04:41:04.524Z,99.99
2018-02-11T04:41:30.622Z,99.99
2018-02-11T04:41:56.717Z,99.99
2018-02-11T04:42:22.820Z,99.99
2018-02-11T04:42:48.922Z,99.99
2018-02-11T04:43:15.028Z,99.99
2018-02-11T04:43:41.129Z,99.99
2018-02-11T04:44:07.232Z,99.99
2018-02-11T04:44:33.333Z,99.99
2018-02-11T04:44:59.432Z,99.99
2018-02-11T04:45:25.525Z,99.99
2018-02-11T04:45:51.650Z,99.99
2018-02-11T04:46:17.749Z,99.99
2018-02-11T04:46:44.219Z,99.99
2018-02-11T04:47:10.449Z,99.99
2018-02-11T04:47:36.543Z,99.99
2018-02-11T04:48:02.638Z,99.99
2018-02-11T04:48:28.742Z,99.99
2018-02-11T04:48:54.838Z,99.99
2018-02-11T04:49:20.936Z,99.99
2018-02-11T04:49:47.244Z,99.99
2018-02-11T04:50:13.372Z,99.99
2018-02-11T04:50:39.460Z,99.99
2018-02-11T04:51:05.564Z,99.99
2018-02-11T04:51:31.656Z,99.99
2018-02-11T04:51:57.759Z,99.99
2018-02-11T04:52:23.862Z,99.99
2018-02-11T04:52:49.962Z,99.99
2018-02-11T04:53:16.077Z,99.99
2018-02-11T04:53:42.172Z,99.99
2018-02-11T04:54:08.322Z,99.99
2018-02-11T04:54:34.435Z,99.99
2018-02-11T04:55:00.535Z,99.99
2018-02-11T04:55:26.636Z,99.99
2018-02-11T04:55:52.734Z,99.99
2018-02-11T04:56:18.836Z,99.99
2018-02-11T04:56:44.936Z,99.99
2018-02-11T04:57:11.034Z,99.99
2018-02-11T04:57:37.130Z,99.99
2018-02-11T04:58:03.276Z,99.99
2018-02-11T04:58:29.379Z,99.99
2018-02-11T04:58:55.477Z,99.99
2018-02-11T04:59:21.598Z,99.99
2018-02-11T04:59:47.691Z,99.99
2018-02-11T05:00:13.798Z,99.99
2018-02-11T05:00:39.897Z,99.99
2018-02-11T05:01:05.998Z,99.99
2018-02-11T05:01:32.091Z,99.99
2018-02-11T05:01:58.204Z,99.99
2018-02-11T05:02:24.309Z,99.99
2018-02-11T05:02:50.438Z,99.99
2018-02-11T05:03:16.538Z,99.99
2018-02-11T05:03:42.636Z,99.99
2018-02-11T05:04:09.089Z,99.99
2018-02-11T05:04:35.169Z,99.99
2018-02-11T05:05:01.269Z,99.99
2018-02-11T05:05:27.366Z,99.99
2018-02-11T05:05:53.459Z,99.99
2018-02-11T05:06:19.561Z,99.99
2018-02-11T05:06:45.657Z,99.99
2018-02-11T05:07:11.755Z,99.99
2018-02-11T05:07:37.875Z,99.99
2018-02-11T05:08:04.023Z,99.99
2018-02-11T05:08:30.125Z,99.99
2018-02-11T05:08:56.242Z,99.99
2018-02-11T05:09:22.344Z,99.99
2018-02-11T05:09:48.441Z,99.99
2018-02-11T05:10:14.567Z,99.99
2018-02-11T05:10:40.687Z,99.99
2018-02-11T05:11:06.785Z,99.99
2018-02-11T05:11:32.881Z,99.99
2018-02-11T05:11:58.984Z,99.99
2018-02-11T05:12:25.083Z,99.99
2018-02-11T05:12:51.181Z,99.99
2018-02-11T05:13:17.282Z,99.99
2018-02-11T05:13:43.377Z,99.99
2018-02-11T05:14:09.480Z,99.99
2018-02-11T05:14:35.593Z,99.99
2018-02-11T05:15:01.812Z,99.99
2018-02-11T05:15:27.885Z,99.99
2018-02-11T05:15:53.978Z,99.99
2018-02-11T05:16:20.073Z,99.99
2018-02-11T05:16:46.178Z,99.99
2018-02-11T05:17:12.291Z,99.99
2018-02-11T05:17:38.424Z,99.99
2018-02-11T05:18:04.513Z,99.99
2018-02-11T05:18:30.612Z,99.99
2018-02-11T05:18:56.712Z,99.99
2018-02-11T05:19:22.846Z,99.99
2018-02-11T05:19:48.966Z,99.99
2018-02-11T05:20:15.126Z,99.99
2018-02-11T05:20:41.203Z,99.99
2018-02-11T05:21:07.302Z,99.99
2018-02-11T05:21:33.405Z,99.99
2018-02-11T05:21:59.524Z,99.99
2018-02-11T05:22:25.622Z,99.99
2018-02-11T05:22:51.722Z,99.99
2018-02-11T05:23:17.849Z,99.99
2018-02-11T05:23:43.952Z,99.99
2018-02-11T05:24:10.050Z,99.99
2018-02-11T05:24:36.153Z,99.99
2018-02-11T05:25:02.258Z,99.99
2018-02-11T05:25:28.346Z,99.99
2018-02-11T05:25:54.442Z,99.99
2018-02-11T05:26:20.544Z,99.99
2018-02-11T05:26:46.644Z,99.99
2018-02-11T05:27:12.736Z,99.99
2018-02-11T05:27:38.839Z,99.99
2018-02-11T05:28:04.961Z,99.99
2018-02-11T05:28:31.300Z,99.99
2018-02-11T05:28:57.732Z,99.99
2018-02-11T05:29:23.833Z,99.99
2018-02-11T05:29:49.930Z,99.99
2018-02-11T05:30:16.028Z,99.99
2018-02-11T05:30:42.153Z,99.99
2018-02-11T05:31:08.266Z,99.99
2018-02-11T05:31:34.363Z,99.99
2018-02-11T05:32:00.464Z,99.99
2018-02-11T05:32:26.562Z,99.99
2018-02-11T05:32:52.684Z,99.99
2018-02-11T05:33:18.787Z,99.99
2018-02-11T05:33:44.881Z,99.99
2018-02-11T05:34:10.985Z,99.99
2018-02-11T05:34:37.079Z,99.99
2018-02-11T05:35:03.195Z,99.99
2018-02-11T05:35:29.322Z,99.99
2018-02-11T05:35:55.418Z,99.99
2018-02-11T05:36:21.534Z,99.99
2018-02-11T05:36:47.668Z,99.99
2018-02-11T05:37:13.783Z,99.99